sensor_id;sensor_type;location;lat;lon;timestamp;P1;durP1;ratioP1;P2;durP2;ratioP2
17228;SDS011;8731;50.364;8.958;2023-07-08T00:02:29;6.10;;;4.63;;
17228;SDS011;8731;50.364;8.958;2023-07-08T00:06:53;5.80;;;5.13;;
17228;SDS011;8731;50.364;8.958;2023-07-08T00:11:15;8.03;;;5.30;;
17228;SDS011;8731;50.364;8.958;2023-07-08T00:15:39;8.13;;;6.27;;
17228;SDS011;8731;50.364;8.958;2023-07-08T00:20:07;6.30;;;5.53;;
17228;SDS011;8731;50.364;8.958;2023-07-08T00:24:37;6.77;;;5.00;;
17228;SDS011;8731;50.364;8.958;2023-07-08T00:29:00;6.57;;;5.43;;
17228;SDS011;8731;50.364;8.958;2023-07-08T00:33:23;6.60;;;5.13;;
17228;SDS011;8731;50.364;8.958;2023-07-08T00:37:45;6.00;;;5.40;;
17228;SDS011;8731;50.364;8.958;2023-07-08T00:42:14;5.77;;;5.17;;
17228;SDS011;8731;50.364;8.958;2023-07-08T00:46:43;6.30;;;4.47;;
17228;SDS011;8731;50.364;8.958;2023-07-08T00:51:18;6.13;;;4.60;;
17228;SDS011;8731;50.364;8.958;2023-07-08T00:55:43;5.20;;;4.67;;
17228;SDS011;8731;50.364;8.958;2023-07-08T01:00:09;5.47;;;4.63;;
17228;SDS011;8731;50.364;8.958;2023-07-08T01:04:38;6.97;;;5.03;;
17228;SDS011;8731;50.364;8.958;2023-07-08T01:09:10;5.30;;;4.77;;
17228;SDS011;8731;50.364;8.958;2023-07-08T01:13:37;4.90;;;4.40;;
17228;SDS011;8731;50.364;8.958;2023-07-08T01:18:06;6.83;;;5.00;;
17228;SDS011;8731;50.364;8.958;2023-07-08T01:22:35;5.37;;;4.87;;
17228;SDS011;8731;50.364;8.958;2023-07-08T01:26:59;5.23;;;4.20;;
17228;SDS011;8731;50.364;8.958;2023-07-08T01:31:24;7.23;;;4.80;;
17228;SDS011;8731;50.364;8.958;2023-07-08T01:35:47;6.10;;;4.90;;
17228;SDS011;8731;50.364;8.958;2023-07-08T01:40:16;6.00;;;4.37;;
17228;SDS011;8731;50.364;8.958;2023-07-08T01:44:51;6.47;;;4.90;;
17228;SDS011;8731;50.364;8.958;2023-07-08T01:49:13;5.87;;;5.20;;
17228;SDS011;8731;50.364;8.958;2023-07-08T01:53:36;7.17;;;5.67;;
17228;SDS011;8731;50.364;8.958;2023-07-08T01:58:03;13.53;;;5.23;;
17228;SDS011;8731;50.364;8.958;2023-07-08T02:02:26;6.63;;;5.10;;
17228;SDS011;8731;50.364;8.958;2023-07-08T02:06:52;8.23;;;5.33;;
17228;SDS011;8731;50.364;8.958;2023-07-08T02:11:16;7.43;;;5.17;;
17228;SDS011;8731;50.364;8.958;2023-07-08T02:15:40;7.93;;;5.60;;
17228;SDS011;8731;50.364;8.958;2023-07-08T02:20:03;6.17;;;5.57;;
17228;SDS011;8731;50.364;8.958;2023-07-08T02:24:28;5.77;;;5.17;;
17228;SDS011;8731;50.364;8.958;2023-07-08T02:28:51;6.50;;;5.30;;
17228;SDS011;8731;50.364;8.958;2023-07-08T02:33:15;5.60;;;4.60;;
17228;SDS011;8731;50.364;8.958;2023-07-08T02:37:38;6.47;;;4.53;;
17228;SDS011;8731;50.364;8.958;2023-07-08T02:42:01;5.77;;;4.13;;
17228;SDS011;8731;50.364;8.958;2023-07-08T02:46:23;7.30;;;4.47;;
17228;SDS011;8731;50.364;8.958;2023-07-08T02:50:47;5.67;;;4.43;;
17228;SDS011;8731;50.364;8.958;2023-07-08T02:55:10;4.83;;;3.87;;
17228;SDS011;8731;50.364;8.958;2023-07-08T02:59:33;5.43;;;4.63;;
17228;SDS011;8731;50.364;8.958;2023-07-08T03:03:55;5.77;;;4.67;;
17228;SDS011;8731;50.364;8.958;2023-07-08T03:08:21;5.83;;;4.57;;
17228;SDS011;8731;50.364;8.958;2023-07-08T03:12:44;5.07;;;4.57;;
17228;SDS011;8731;50.364;8.958;2023-07-08T03:17:06;5.37;;;4.60;;
17228;SDS011;8731;50.364;8.958;2023-07-08T03:21:31;5.50;;;4.67;;
17228;SDS011;8731;50.364;8.958;2023-07-08T03:25:55;6.33;;;4.87;;
17228;SDS011;8731;50.364;8.958;2023-07-08T03:30:18;6.40;;;4.43;;
17228;SDS011;8731;50.364;8.958;2023-07-08T03:34:40;6.07;;;5.17;;
17228;SDS011;8731;50.364;8.958;2023-07-08T03:39:03;5.60;;;5.00;;
17228;SDS011;8731;50.364;8.958;2023-07-08T03:43:26;6.67;;;5.30;;
17228;SDS011;8731;50.364;8.958;2023-07-08T03:47:49;6.20;;;4.90;;
17228;SDS011;8731;50.364;8.958;2023-07-08T03:52:12;6.87;;;5.23;;
17228;SDS011;8731;50.364;8.958;2023-07-08T03:56:38;7.07;;;5.53;;
17228;SDS011;8731;50.364;8.958;2023-07-08T04:01:03;6.40;;;5.30;;
17228;SDS011;8731;50.364;8.958;2023-07-08T04:05:26;7.30;;;4.93;;
17228;SDS011;8731;50.364;8.958;2023-07-08T04:09:48;5.50;;;4.77;;
17228;SDS011;8731;50.364;8.958;2023-07-08T04:14:10;6.10;;;5.30;;
17228;SDS011;8731;50.364;8.958;2023-07-08T04:18:34;5.70;;;4.63;;
17228;SDS011;8731;50.364;8.958;2023-07-08T04:22:57;8.10;;;5.20;;
17228;SDS011;8731;50.364;8.958;2023-07-08T04:27:20;5.93;;;4.90;;
17228;SDS011;8731;50.364;8.958;2023-07-08T04:31:42;5.63;;;4.80;;
17228;SDS011;8731;50.364;8.958;2023-07-08T04:36:08;7.20;;;4.67;;
17228;SDS011;8731;50.364;8.958;2023-07-08T04:40:35;5.63;;;4.23;;
17228;SDS011;8731;50.364;8.958;2023-07-08T04:45:00;6.63;;;5.07;;
17228;SDS011;8731;50.364;8.958;2023-07-08T04:49:24;6.57;;;5.23;;
17228;SDS011;8731;50.364;8.958;2023-07-08T04:53:53;6.33;;;5.73;;
17228;SDS011;8731;50.364;8.958;2023-07-08T04:58:15;6.30;;;5.40;;
17228;SDS011;8731;50.364;8.958;2023-07-08T05:02:37;5.93;;;5.33;;
17228;SDS011;8731;50.364;8.958;2023-07-08T05:06:59;8.93;;;5.40;;
17228;SDS011;8731;50.364;8.958;2023-07-08T05:11:23;7.00;;;5.13;;
17228;SDS011;8731;50.364;8.958;2023-07-08T05:15:45;6.37;;;5.57;;
17228;SDS011;8731;50.364;8.958;2023-07-08T05:20:10;6.67;;;5.70;;
17228;SDS011;8731;50.364;8.958;2023-07-08T05:24:35;8.60;;;6.20;;
17228;SDS011;8731;50.364;8.958;2023-07-08T05:28:59;7.10;;;5.87;;
17228;SDS011;8731;50.364;8.958;2023-07-08T05:33:22;9.37;;;6.10;;
17228;SDS011;8731;50.364;8.958;2023-07-08T05:37:44;7.03;;;6.33;;
17228;SDS011;8731;50.364;8.958;2023-07-08T05:42:07;7.53;;;6.37;;
17228;SDS011;8731;50.364;8.958;2023-07-08T05:46:30;6.63;;;5.80;;
17228;SDS011;8731;50.364;8.958;2023-07-08T05:50:53;8.50;;;5.87;;
17228;SDS011;8731;50.364;8.958;2023-07-08T05:55:16;9.10;;;6.30;;
17228;SDS011;8731;50.364;8.958;2023-07-08T05:59:38;9.63;;;6.30;;
17228;SDS011;8731;50.364;8.958;2023-07-08T06:04:04;7.23;;;6.03;;
17228;SDS011;8731;50.364;8.958;2023-07-08T06:08:27;7.30;;;5.60;;
17228;SDS011;8731;50.364;8.958;2023-07-08T06:12:49;6.90;;;6.07;;
17228;SDS011;8731;50.364;8.958;2023-07-08T06:17:12;6.70;;;5.33;;
17228;SDS011;8731;50.364;8.958;2023-07-08T06:21:36;6.80;;;4.60;;
17228;SDS011;8731;50.364;8.958;2023-07-08T06:25:59;5.00;;;4.40;;
17228;SDS011;8731;50.364;8.958;2023-07-08T06:30:21;4.47;;;3.63;;
17228;SDS011;8731;50.364;8.958;2023-07-08T06:34:43;4.87;;;4.27;;
17228;SDS011;8731;50.364;8.958;2023-07-08T06:39:07;4.57;;;4.13;;
17228;SDS011;8731;50.364;8.958;2023-07-08T06:43:31;4.27;;;3.90;;
17228;SDS011;8731;50.364;8.958;2023-07-08T06:48:02;7.07;;;4.50;;
17228;SDS011;8731;50.364;8.958;2023-07-08T06:52:24;4.23;;;3.83;;
17228;SDS011;8731;50.364;8.958;2023-07-08T06:56:48;4.37;;;3.97;;
17228;SDS011;8731;50.364;8.958;2023-07-08T07:01:10;5.03;;;4.27;;
17228;SDS011;8731;50.364;8.958;2023-07-08T07:05:32;4.57;;;4.10;;
17228;SDS011;8731;50.364;8.958;2023-07-08T07:09:55;4.83;;;3.73;;
17228;SDS011;8731;50.364;8.958;2023-07-08T07:14:18;4.63;;;4.20;;
17228;SDS011;8731;50.364;8.958;2023-07-08T07:18:41;4.43;;;3.87;;
17228;SDS011;8731;50.364;8.958;2023-07-08T07:23:03;9.97;;;4.27;;
17228;SDS011;8731;50.364;8.958;2023-07-08T07:27:25;4.53;;;4.13;;
17228;SDS011;8731;50.364;8.958;2023-07-08T07:31:49;4.50;;;4.10;;
17228;SDS011;8731;50.364;8.958;2023-07-08T07:36:12;4.50;;;3.97;;
17228;SDS011;8731;50.364;8.958;2023-07-08T07:40:34;4.97;;;4.17;;
17228;SDS011;8731;50.364;8.958;2023-07-08T07:44:57;4.33;;;3.87;;
17228;SDS011;8731;50.364;8.958;2023-07-08T07:49:20;4.40;;;4.00;;
17228;SDS011;8731;50.364;8.958;2023-07-08T07:53:43;4.40;;;4.00;;
17228;SDS011;8731;50.364;8.958;2023-07-08T07:58:05;4.87;;;4.23;;
17228;SDS011;8731;50.364;8.958;2023-07-08T08:02:28;5.55;;;4.13;;
17228;SDS011;8731;50.364;8.958;2023-07-08T08:06:51;4.30;;;3.95;;
17228;SDS011;8731;50.364;8.958;2023-07-08T08:11:14;4.63;;;4.22;;
17228;SDS011;8731;50.364;8.958;2023-07-08T08:15:36;4.25;;;3.85;;
17228;SDS011;8731;50.364;8.958;2023-07-08T08:19:59;4.50;;;4.10;;
17228;SDS011;8731;50.364;8.958;2023-07-08T08:24:23;4.30;;;3.90;;
17228;SDS011;8731;50.364;8.958;2023-07-08T08:28:45;5.38;;;3.78;;
17228;SDS011;8731;50.364;8.958;2023-07-08T08:33:08;4.85;;;4.18;;
17228;SDS011;8731;50.364;8.958;2023-07-08T08:37:30;5.45;;;3.97;;
17228;SDS011;8731;50.364;8.958;2023-07-08T08:41:54;4.50;;;4.10;;
17228;SDS011;8731;50.364;8.958;2023-07-08T08:46:21;6.88;;;4.50;;
17228;SDS011;8731;50.364;8.958;2023-07-08T08:50:54;4.75;;;4.32;;
17228;SDS011;8731;50.364;8.958;2023-07-08T08:55:20;4.43;;;4.03;;
17228;SDS011;8731;50.364;8.958;2023-07-08T08:59:48;4.68;;;3.92;;
17228;SDS011;8731;50.364;8.958;2023-07-08T09:04:17;5.38;;;4.38;;
17228;SDS011;8731;50.364;8.958;2023-07-08T09:08:45;5.28;;;4.30;;
17228;SDS011;8731;50.364;8.958;2023-07-08T09:13:11;5.63;;;4.35;;
17228;SDS011;8731;50.364;8.958;2023-07-08T09:17:44;5.68;;;4.68;;
17228;SDS011;8731;50.364;8.958;2023-07-08T09:22:11;5.90;;;4.22;;
17228;SDS011;8731;50.364;8.958;2023-07-08T09:26:41;4.97;;;4.47;;
17228;SDS011;8731;50.364;8.958;2023-07-08T09:31:04;5.03;;;4.53;;
17228;SDS011;8731;50.364;8.958;2023-07-08T09:35:37;6.45;;;4.90;;
17228;SDS011;8731;50.364;8.958;2023-07-08T09:40:09;4.95;;;4.50;;
17228;SDS011;8731;50.364;8.958;2023-07-08T09:44:38;5.65;;;4.70;;
17228;SDS011;8731;50.364;8.958;2023-07-08T09:49:02;5.50;;;4.28;;
17228;SDS011;8731;50.364;8.958;2023-07-08T09:53:40;5.70;;;4.88;;
17228;SDS011;8731;50.364;8.958;2023-07-08T09:58:02;7.60;;;4.85;;
17228;SDS011;8731;50.364;8.958;2023-07-08T10:02:26;5.20;;;4.72;;
17228;SDS011;8731;50.364;8.958;2023-07-08T10:06:54;5.60;;;4.50;;
17228;SDS011;8731;50.364;8.958;2023-07-08T10:11:23;5.32;;;4.53;;
17228;SDS011;8731;50.364;8.958;2023-07-08T10:15:50;9.00;;;5.00;;
17228;SDS011;8731;50.364;8.958;2023-07-08T10:20:18;5.38;;;4.45;;
17228;SDS011;8731;50.364;8.958;2023-07-08T10:24:47;4.95;;;4.55;;
17228;SDS011;8731;50.364;8.958;2023-07-08T10:29:24;5.88;;;5.30;;
17228;SDS011;8731;50.364;8.958;2023-07-08T10:33:59;5.80;;;4.80;;
17228;SDS011;8731;50.364;8.958;2023-07-08T10:38:42;5.90;;;4.85;;
17228;SDS011;8731;50.364;8.958;2023-07-08T10:43:23;6.13;;;4.78;;
17228;SDS011;8731;50.364;8.958;2023-07-08T10:48:17;5.63;;;4.90;;
17228;SDS011;8731;50.364;8.958;2023-07-08T10:53:02;6.70;;;5.32;;
17228;SDS011;8731;50.364;8.958;2023-07-08T10:57:54;5.70;;;5.10;;
17228;SDS011;8731;50.364;8.958;2023-07-08T11:03:03;6.40;;;5.10;;
17228;SDS011;8731;50.364;8.958;2023-07-08T11:07:50;6.57;;;6.05;;
17228;SDS011;8731;50.364;8.958;2023-07-08T11:12:23;5.55;;;5.05;;
17228;SDS011;8731;50.364;8.958;2023-07-08T11:16:51;6.25;;;5.20;;
17228;SDS011;8731;50.364;8.958;2023-07-08T11:21:27;6.10;;;5.45;;
17228;SDS011;8731;50.364;8.958;2023-07-08T11:26:05;5.57;;;5.07;;
17228;SDS011;8731;50.364;8.958;2023-07-08T11:30:39;6.05;;;5.45;;
17228;SDS011;8731;50.364;8.958;2023-07-08T11:35:04;7.75;;;6.05;;
17228;SDS011;8731;50.364;8.958;2023-07-08T11:39:41;6.88;;;5.72;;
17228;SDS011;8731;50.364;8.958;2023-07-08T11:44:05;6.90;;;5.57;;
17228;SDS011;8731;50.364;8.958;2023-07-08T11:48:35;7.63;;;5.55;;
17228;SDS011;8731;50.364;8.958;2023-07-08T11:53:06;5.80;;;5.20;;
17228;SDS011;8731;50.364;8.958;2023-07-08T11:57:37;6.47;;;5.72;;
17228;SDS011;8731;50.364;8.958;2023-07-08T12:02:04;6.72;;;6.05;;
17228;SDS011;8731;50.364;8.958;2023-07-08T12:06:42;7.35;;;5.20;;
17228;SDS011;8731;50.364;8.958;2023-07-08T12:11:09;7.07;;;6.07;;
17228;SDS011;8731;50.364;8.958;2023-07-08T12:15:34;6.80;;;5.53;;
17228;SDS011;8731;50.364;8.958;2023-07-08T12:19:56;6.47;;;5.07;;
17228;SDS011;8731;50.364;8.958;2023-07-08T12:24:24;6.55;;;5.80;;
17228;SDS011;8731;50.364;8.958;2023-07-08T12:28:47;6.30;;;5.70;;
17228;SDS011;8731;50.364;8.958;2023-07-08T12:33:12;6.30;;;5.70;;
17228;SDS011;8731;50.364;8.958;2023-07-08T12:37:37;6.93;;;5.50;;
17228;SDS011;8731;50.364;8.958;2023-07-08T12:41:59;5.97;;;5.28;;
17228;SDS011;8731;50.364;8.958;2023-07-08T12:46:24;5.75;;;5.25;;
17228;SDS011;8731;50.364;8.958;2023-07-08T12:50:49;10.52;;;5.97;;
17228;SDS011;8731;50.364;8.958;2023-07-08T12:55:12;5.30;;;4.80;;
17228;SDS011;8731;50.364;8.958;2023-07-08T12:59:36;5.53;;;5.03;;
17228;SDS011;8731;50.364;8.958;2023-07-08T13:04:06;7.15;;;5.97;;
17228;SDS011;8731;50.364;8.958;2023-07-08T13:08:41;5.95;;;5.35;;
17228;SDS011;8731;50.364;8.958;2023-07-08T13:13:08;7.05;;;5.32;;
17228;SDS011;8731;50.364;8.958;2023-07-08T13:17:38;6.07;;;5.50;;
17228;SDS011;8731;50.364;8.958;2023-07-08T13:22:01;6.43;;;5.60;;
17228;SDS011;8731;50.364;8.958;2023-07-08T13:26:27;8.32;;;5.80;;
17228;SDS011;8731;50.364;8.958;2023-07-08T13:30:52;5.63;;;5.13;;
17228;SDS011;8731;50.364;8.958;2023-07-08T13:35:20;7.93;;;5.80;;
17228;SDS011;8731;50.364;8.958;2023-07-08T13:39:45;6.40;;;5.63;;
17228;SDS011;8731;50.364;8.958;2023-07-08T13:44:09;7.63;;;5.80;;
17228;SDS011;8731;50.364;8.958;2023-07-08T13:48:34;6.68;;;5.97;;
17228;SDS011;8731;50.364;8.958;2023-07-08T13:53:01;6.38;;;5.78;;
17228;SDS011;8731;50.364;8.958;2023-07-08T13:57:31;5.70;;;5.07;;
17228;SDS011;8731;50.364;8.958;2023-07-08T14:01:59;6.30;;;5.32;;
17228;SDS011;8731;50.364;8.958;2023-07-08T14:06:22;6.72;;;5.57;;
17228;SDS011;8731;50.364;8.958;2023-07-08T14:10:47;6.43;;;5.40;;
17228;SDS011;8731;50.364;8.958;2023-07-08T14:15:09;5.72;;;4.93;;
17228;SDS011;8731;50.364;8.958;2023-07-08T14:19:34;6.30;;;5.00;;
17228;SDS011;8731;50.364;8.958;2023-07-08T14:23:56;6.05;;;5.40;;
17228;SDS011;8731;50.364;8.958;2023-07-08T14:28:18;6.90;;;5.53;;
17228;SDS011;8731;50.364;8.958;2023-07-08T14:32:41;7.05;;;5.57;;
17228;SDS011;8731;50.364;8.958;2023-07-08T14:37:07;8.07;;;5.32;;
17228;SDS011;8731;50.364;8.958;2023-07-08T14:41:36;6.82;;;5.85;;
17228;SDS011;8731;50.364;8.958;2023-07-08T14:46:00;6.55;;;5.30;;
17228;SDS011;8731;50.364;8.958;2023-07-08T14:50:26;7.50;;;5.43;;
17228;SDS011;8731;50.364;8.958;2023-07-08T14:54:51;6.05;;;5.30;;
17228;SDS011;8731;50.364;8.958;2023-07-08T14:59:14;5.88;;;4.70;;
17228;SDS011;8731;50.364;8.958;2023-07-08T15:03:40;6.22;;;4.95;;
17228;SDS011;8731;50.364;8.958;2023-07-08T15:08:02;6.00;;;5.40;;
17228;SDS011;8731;50.364;8.958;2023-07-08T15:12:27;6.20;;;5.28;;
17228;SDS011;8731;50.364;8.958;2023-07-08T15:16:49;7.07;;;5.22;;
17228;SDS011;8731;50.364;8.958;2023-07-08T15:21:13;7.35;;;5.47;;
17228;SDS011;8731;50.364;8.958;2023-07-08T15:25:37;6.47;;;4.95;;
17228;SDS011;8731;50.364;8.958;2023-07-08T15:30:07;11.75;;;5.88;;
17228;SDS011;8731;50.364;8.958;2023-07-08T15:34:38;6.00;;;5.43;;
17228;SDS011;8731;50.364;8.958;2023-07-08T15:39:00;6.57;;;5.85;;
17228;SDS011;8731;50.364;8.958;2023-07-08T15:43:23;6.95;;;5.45;;
17228;SDS011;8731;50.364;8.958;2023-07-08T15:47:47;10.80;;;5.25;;
17228;SDS011;8731;50.364;8.958;2023-07-08T15:52:09;6.10;;;5.50;;
17228;SDS011;8731;50.364;8.958;2023-07-08T15:56:32;6.07;;;5.47;;
17228;SDS011;8731;50.364;8.958;2023-07-08T16:00:54;7.50;;;5.90;;
17228;SDS011;8731;50.364;8.958;2023-07-08T16:05:19;6.20;;;5.45;;
17228;SDS011;8731;50.364;8.958;2023-07-08T16:09:41;8.45;;;5.80;;
17228;SDS011;8731;50.364;8.958;2023-07-08T16:14:03;9.15;;;5.45;;
17228;SDS011;8731;50.364;8.958;2023-07-08T16:18:27;6.32;;;5.72;;
17228;SDS011;8731;50.364;8.958;2023-07-08T16:22:50;6.28;;;5.65;;
17228;SDS011;8731;50.364;8.958;2023-07-08T16:27:12;8.27;;;5.80;;
17228;SDS011;8731;50.364;8.958;2023-07-08T16:31:35;9.05;;;5.40;;
17228;SDS011;8731;50.364;8.958;2023-07-08T16:35:57;7.32;;;5.10;;
17228;SDS011;8731;50.364;8.958;2023-07-08T16:40:21;7.07;;;5.10;;
17228;SDS011;8731;50.364;8.958;2023-07-08T16:44:47;5.85;;;5.25;;
17228;SDS011;8731;50.364;8.958;2023-07-08T16:49:09;7.00;;;5.32;;
17228;SDS011;8731;50.364;8.958;2023-07-08T16:53:32;7.82;;;5.65;;
17228;SDS011;8731;50.364;8.958;2023-07-08T16:57:55;14.85;;;13.05;;
17228;SDS011;8731;50.364;8.958;2023-07-08T17:02:18;6.45;;;5.47;;
17228;SDS011;8731;50.364;8.958;2023-07-08T17:06:41;6.47;;;5.70;;
17228;SDS011;8731;50.364;8.958;2023-07-08T17:11:03;8.00;;;4.95;;
17228;SDS011;8731;50.364;8.958;2023-07-08T17:15:28;6.15;;;5.30;;
17228;SDS011;8731;50.364;8.958;2023-07-08T17:19:53;6.40;;;5.57;;
17228;SDS011;8731;50.364;8.958;2023-07-08T17:24:15;11.18;;;6.00;;
17228;SDS011;8731;50.364;8.958;2023-07-08T17:28:37;7.65;;;5.43;;
17228;SDS011;8731;50.364;8.958;2023-07-08T17:33:01;8.60;;;5.53;;
17228;SDS011;8731;50.364;8.958;2023-07-08T17:37:24;9.68;;;6.13;;
17228;SDS011;8731;50.364;8.958;2023-07-08T17:41:46;7.80;;;5.50;;
17228;SDS011;8731;50.364;8.958;2023-07-08T17:46:13;8.13;;;5.20;;
17228;SDS011;8731;50.364;8.958;2023-07-08T17:50:40;7.65;;;5.20;;
17228;SDS011;8731;50.364;8.958;2023-07-08T17:55:02;8.32;;;5.65;;
17228;SDS011;8731;50.364;8.958;2023-07-08T17:59:25;6.93;;;5.55;;
17228;SDS011;8731;50.364;8.958;2023-07-08T18:03:49;9.73;;;5.90;;
17228;SDS011;8731;50.364;8.958;2023-07-08T18:08:13;7.03;;;5.40;;
17228;SDS011;8731;50.364;8.958;2023-07-08T18:12:36;5.75;;;5.15;;
17228;SDS011;8731;50.364;8.958;2023-07-08T18:16:58;8.55;;;5.40;;
17228;SDS011;8731;50.364;8.958;2023-07-08T18:21:21;6.97;;;4.80;;
17228;SDS011;8731;50.364;8.958;2023-07-08T18:25:47;6.93;;;5.00;;
17228;SDS011;8731;50.364;8.958;2023-07-08T18:30:11;7.37;;;5.70;;
17228;SDS011;8731;50.364;8.958;2023-07-08T18:34:37;6.50;;;4.83;;
17228;SDS011;8731;50.364;8.958;2023-07-08T18:38:59;8.93;;;5.10;;
17228;SDS011;8731;50.364;8.958;2023-07-08T18:43:24;8.60;;;5.97;;
17228;SDS011;8731;50.364;8.958;2023-07-08T18:47:50;8.77;;;5.60;;
17228;SDS011;8731;50.364;8.958;2023-07-08T18:52:12;9.70;;;5.67;;
17228;SDS011;8731;50.364;8.958;2023-07-08T18:56:36;6.37;;;5.20;;
17228;SDS011;8731;50.364;8.958;2023-07-08T19:01:00;7.63;;;5.03;;
17228;SDS011;8731;50.364;8.958;2023-07-08T19:05:22;8.77;;;5.10;;
17228;SDS011;8731;50.364;8.958;2023-07-08T19:09:46;6.37;;;5.23;;
17228;SDS011;8731;50.364;8.958;2023-07-08T19:14:11;9.10;;;5.80;;
17228;SDS011;8731;50.364;8.958;2023-07-08T19:18:36;7.17;;;5.13;;
17228;SDS011;8731;50.364;8.958;2023-07-08T19:22:59;8.00;;;4.97;;
17228;SDS011;8731;50.364;8.958;2023-07-08T19:27:22;7.33;;;4.93;;
17228;SDS011;8731;50.364;8.958;2023-07-08T19:31:45;7.40;;;4.70;;
17228;SDS011;8731;50.364;8.958;2023-07-08T19:36:10;9.77;;;4.90;;
17228;SDS011;8731;50.364;8.958;2023-07-08T19:40:32;6.17;;;4.17;;
17228;SDS011;8731;50.364;8.958;2023-07-08T19:44:55;8.10;;;3.80;;
17228;SDS011;8731;50.364;8.958;2023-07-08T19:49:17;6.10;;;4.67;;
17228;SDS011;8731;50.364;8.958;2023-07-08T19:53:41;7.03;;;4.43;;
17228;SDS011;8731;50.364;8.958;2023-07-08T19:58:04;8.07;;;4.53;;
17228;SDS011;8731;50.364;8.958;2023-07-08T20:02:32;9.27;;;4.10;;
17228;SDS011;8731;50.364;8.958;2023-07-08T20:06:54;5.87;;;3.57;;
17228;SDS011;8731;50.364;8.958;2023-07-08T20:11:18;4.27;;;3.20;;
17228;SDS011;8731;50.364;8.958;2023-07-08T20:15:41;5.10;;;3.00;;
17228;SDS011;8731;50.364;8.958;2023-07-08T20:20:03;7.27;;;3.70;;
17228;SDS011;8731;50.364;8.958;2023-07-08T20:24:39;4.73;;;3.17;;
17228;SDS011;8731;50.364;8.958;2023-07-08T20:29:03;4.80;;;3.20;;
17228;SDS011;8731;50.364;8.958;2023-07-08T20:33:30;6.27;;;3.77;;
17228;SDS011;8731;50.364;8.958;2023-07-08T20:37:52;6.63;;;3.33;;
17228;SDS011;8731;50.364;8.958;2023-07-08T20:42:15;4.07;;;3.00;;
17228;SDS011;8731;50.364;8.958;2023-07-08T20:46:39;4.37;;;3.40;;
17228;SDS011;8731;50.364;8.958;2023-07-08T20:51:06;4.97;;;3.10;;
17228;SDS011;8731;50.364;8.958;2023-07-08T20:55:29;5.23;;;3.43;;
17228;SDS011;8731;50.364;8.958;2023-07-08T20:59:52;6.00;;;3.60;;
17228;SDS011;8731;50.364;8.958;2023-07-08T21:04:16;4.13;;;3.13;;
17228;SDS011;8731;50.364;8.958;2023-07-08T21:08:38;5.00;;;3.03;;
17228;SDS011;8731;50.364;8.958;2023-07-08T21:13:01;3.10;;;2.53;;
17228;SDS011;8731;50.364;8.958;2023-07-08T21:17:24;4.33;;;2.90;;
17228;SDS011;8731;50.364;8.958;2023-07-08T21:21:51;4.27;;;2.57;;
17228;SDS011;8731;50.364;8.958;2023-07-08T21:26:15;5.53;;;3.23;;
17228;SDS011;8731;50.364;8.958;2023-07-08T21:30:41;5.07;;;3.07;;
17228;SDS011;8731;50.364;8.958;2023-07-08T21:35:04;4.50;;;3.23;;
17228;SDS011;8731;50.364;8.958;2023-07-08T21:39:32;5.27;;;3.10;;
17228;SDS011;8731;50.364;8.958;2023-07-08T21:43:55;4.57;;;3.40;;
17228;SDS011;8731;50.364;8.958;2023-07-08T21:48:18;6.40;;;2.67;;
17228;SDS011;8731;50.364;8.958;2023-07-08T21:52:41;5.20;;;3.23;;
17228;SDS011;8731;50.364;8.958;2023-07-08T21:57:05;6.40;;;3.37;;
17228;SDS011;8731;50.364;8.958;2023-07-08T22:01:33;4.37;;;3.17;;
17228;SDS011;8731;50.364;8.958;2023-07-08T22:05:55;6.83;;;3.33;;
17228;SDS011;8731;50.364;8.958;2023-07-08T22:10:19;6.23;;;3.63;;
17228;SDS011;8731;50.364;8.958;2023-07-08T22:14:44;3.90;;;3.37;;
17228;SDS011;8731;50.364;8.958;2023-07-08T22:19:06;5.37;;;3.60;;
17228;SDS011;8731;50.364;8.958;2023-07-08T22:23:29;5.27;;;3.53;;
17228;SDS011;8731;50.364;8.958;2023-07-08T22:27:51;6.90;;;3.97;;
17228;SDS011;8731;50.364;8.958;2023-07-08T22:32:15;7.17;;;4.10;;
17228;SDS011;8731;50.364;8.958;2023-07-08T22:36:37;4.83;;;3.90;;
17228;SDS011;8731;50.364;8.958;2023-07-08T22:41:00;4.90;;;3.67;;
17228;SDS011;8731;50.364;8.958;2023-07-08T22:45:22;5.63;;;3.77;;
17228;SDS011;8731;50.364;8.958;2023-07-08T22:49:46;7.87;;;4.03;;
17228;SDS011;8731;50.364;8.958;2023-07-08T22:54:10;6.47;;;4.00;;
17228;SDS011;8731;50.364;8.958;2023-07-08T22:58:38;4.80;;;3.97;;
17228;SDS011;8731;50.364;8.958;2023-07-08T23:03:00;5.83;;;4.10;;
17228;SDS011;8731;50.364;8.958;2023-07-08T23:07:24;4.77;;;3.80;;
17228;SDS011;8731;50.364;8.958;2023-07-08T23:11:46;5.00;;;3.37;;
17228;SDS011;8731;50.364;8.958;2023-07-08T23:16:20;5.43;;;3.87;;
17228;SDS011;8731;50.364;8.958;2023-07-08T23:20:49;6.83;;;3.90;;
17228;SDS011;8731;50.364;8.958;2023-07-08T23:25:12;3.83;;;3.43;;
17228;SDS011;8731;50.364;8.958;2023-07-08T23:29:36;4.93;;;3.40;;
17228;SDS011;8731;50.364;8.958;2023-07-08T23:33:58;4.27;;;3.53;;
17228;SDS011;8731;50.364;8.958;2023-07-08T23:38:21;4.10;;;3.57;;
17228;SDS011;8731;50.364;8.958;2023-07-08T23:42:45;4.83;;;3.37;;
17228;SDS011;8731;50.364;8.958;2023-07-08T23:47:08;6.90;;;4.10;;
17228;SDS011;8731;50.364;8.958;2023-07-08T23:51:42;5.63;;;3.83;;
17228;SDS011;8731;50.364;8.958;2023-07-08T23:56:04;3.97;;;3.43;;
